createdAt,value
2023-01-22T00:01:15.681Z,100.00
2023-01-22T00:03:48.499Z,100.00
2023-01-22T00:06:21.294Z,100.00
2023-01-22T00:08:53.623Z,100.00
2023-01-22T00:11:25.749Z,100.00
2023-01-22T00:13:58.456Z,100.00
2023-01-22T00:16:30.560Z,100.00
2023-01-22T00:19:02.668Z,100.00
2023-01-22T00:21:34.787Z,100.00
2023-01-22T00:24:07.112Z,100.00
2023-01-22T00:26:39.142Z,100.00
2023-01-22T00:29:12.222Z,100.00
2023-01-22T00:31:44.858Z,100.00
2023-01-22T00:34:16.894Z,100.00
2023-01-22T00:36:48.980Z,100.00
2023-01-22T00:39:21.012Z,100.00
2023-01-22T00:41:53.111Z,100.00
2023-01-22T00:44:25.807Z,100.00
2023-01-22T00:46:59.407Z,100.00
2023-01-22T00:49:31.978Z,100.00
2023-01-22T00:52:04.418Z,100.00
2023-01-22T00:54:36.465Z,100.00
2023-01-22T00:57:08.723Z,100.00
2023-01-22T00:59:41.445Z,100.00
2023-01-22T01:02:13.813Z,100.00
2023-01-22T01:04:45.875Z,100.00
2023-01-22T01:07:17.925Z,100.00
2023-01-22T01:09:49.916Z,100.00
2023-01-22T01:12:22.082Z,100.00
2023-01-22T01:14:56.975Z,100.00
2023-01-22T01:17:29.034Z,100.00
2023-01-22T01:20:01.507Z,100.00
2023-01-22T01:22:33.747Z,100.00
2023-01-22T01:25:05.894Z,100.00
2023-01-22T01:27:37.978Z,100.00
2023-01-22T01:30:11.271Z,100.00
2023-01-22T01:32:43.709Z,100.00
2023-01-22T01:35:15.831Z,100.00
2023-01-22T01:37:47.913Z,100.00
2023-01-22T01:40:20.068Z,100.00
2023-01-22T01:42:52.436Z,100.00
2023-01-22T01:45:26.612Z,100.00
2023-01-22T01:48:06.835Z,100.00
2023-01-22T01:50:40.022Z,100.00
2023-01-22T01:53:12.225Z,100.00
2023-01-22T01:55:44.244Z,100.00
2023-01-22T01:58:20.901Z,100.00
2023-01-22T02:00:59.078Z,100.00
2023-01-22T02:03:31.204Z,100.00
2023-01-22T02:06:03.574Z,100.00
2023-01-22T02:08:35.672Z,100.00
2023-01-22T02:11:08.275Z,100.00
2023-01-22T02:13:43.558Z,100.00
2023-01-22T02:16:16.276Z,100.00
2023-01-22T02:18:48.747Z,100.00
2023-01-22T02:21:28.797Z,100.00
2023-01-22T02:24:01.374Z,100.00
2023-01-22T02:26:33.615Z,100.00
2023-01-22T02:29:07.257Z,100.00
2023-01-22T02:31:39.984Z,100.00
2023-01-22T02:34:12.436Z,100.00
2023-01-22T02:36:45.163Z,100.00
2023-01-22T02:39:17.385Z,100.00
2023-01-22T02:41:49.979Z,100.00
2023-01-22T02:44:22.235Z,100.00
2023-01-22T02:46:54.598Z,100.00
2023-01-22T02:49:26.650Z,100.00
2023-01-22T02:51:59.681Z,100.00
2023-01-22T02:54:32.364Z,100.00
2023-01-22T02:57:04.409Z,100.00
2023-01-22T02:59:36.412Z,100.00
2023-01-22T03:02:08.540Z,100.00
2023-01-22T03:04:40.656Z,100.00
2023-01-22T03:07:14.989Z,100.00
2023-01-22T03:09:47.230Z,100.00
2023-01-22T03:12:19.338Z,100.00
2023-01-22T03:15:09.787Z,100.00
2023-01-22T03:17:59.971Z,100.00
2023-01-22T03:20:54.255Z,100.00
2023-01-22T03:23:28.096Z,100.00
2023-01-22T03:26:00.186Z,100.00
2023-01-22T03:28:32.565Z,100.00
2023-01-22T03:31:04.819Z,100.00
2023-01-22T03:33:37.235Z,100.00
2023-01-22T03:36:12.813Z,100.00
2023-01-22T03:38:50.556Z,100.00
2023-01-22T03:41:26.212Z,100.00
2023-01-22T03:44:00.935Z,100.00
2023-01-22T03:46:38.501Z,100.00
2023-01-22T03:49:12.348Z,100.00
2023-01-22T03:51:46.312Z,100.00
2023-01-22T03:54:19.537Z,100.00
2023-01-22T03:56:51.845Z,100.00
2023-01-22T03:59:32.875Z,100.00
2023-01-22T04:02:05.160Z,100.00
2023-01-22T04:04:43.952Z,100.00
2023-01-22T04:07:15.991Z,100.00
2023-01-22T04:09:48.674Z,100.00
2023-01-22T04:12:20.751Z,100.00
2023-01-22T04:14:52.814Z,100.00
2023-01-22T04:17:26.913Z,100.00
2023-01-22T04:20:10.525Z,100.00
2023-01-22T04:22:48.444Z,100.00
2023-01-22T04:25:21.553Z,100.00
2023-01-22T04:27:53.785Z,100.00
2023-01-22T04:30:27.035Z,100.00
2023-01-22T04:33:09.681Z,100.00
2023-01-22T04:35:49.823Z,100.00
2023-01-22T04:38:22.022Z,100.00
2023-01-22T04:40:55.330Z,100.00
2023-01-22T04:43:28.046Z,100.00
2023-01-22T04:46:00.100Z,100.00
2023-01-22T04:48:36.047Z,100.00
2023-01-22T04:51:08.352Z,100.00
2023-01-22T04:53:40.540Z,100.00
2023-01-22T04:56:13.821Z,100.00
2023-01-22T04:58:48.960Z,100.00
2023-01-22T05:01:21.079Z,100.00
2023-01-22T05:03:53.408Z,100.00
2023-01-22T05:06:25.514Z,100.00
2023-01-22T05:08:58.304Z,100.00
2023-01-22T05:11:31.656Z,100.00
2023-01-22T05:14:08.792Z,100.00
2023-01-22T05:16:42.587Z,100.00
2023-01-22T05:19:14.891Z,100.00
2023-01-22T05:21:47.403Z,100.00
2023-01-22T05:24:22.255Z,100.00
2023-01-22T05:26:54.922Z,100.00
2023-01-22T05:29:33.949Z,100.00
2023-01-22T05:32:32.492Z,100.00
2023-01-22T05:35:06.330Z,100.00
2023-01-22T05:37:41.242Z,100.00
2023-01-22T05:40:13.607Z,100.00
2023-01-22T05:42:46.343Z,100.00
2023-01-22T05:45:18.418Z,100.00
2023-01-22T05:48:05.008Z,100.00
2023-01-22T05:50:44.362Z,100.00
2023-01-22T05:53:18.247Z,100.00
2023-01-22T05:55:50.325Z,100.00
2023-01-22T05:58:23.093Z,100.00
2023-01-22T06:00:55.606Z,100.00
2023-01-22T06:03:32.534Z,100.00
2023-01-22T06:06:05.634Z,100.00
2023-01-22T06:08:38.037Z,100.00
2023-01-22T06:11:11.402Z,100.00
2023-01-22T06:13:44.161Z,100.00
2023-01-22T06:16:24.242Z,100.00
2023-01-22T06:19:13.182Z,100.00
2023-01-22T06:21:57.773Z,100.00
2023-01-22T06:24:36.166Z,100.00
2023-01-22T06:27:09.351Z,100.00
2023-01-22T06:29:54.712Z,100.00
2023-01-22T06:32:27.036Z,100.00
2023-01-22T06:34:59.039Z,100.00
2023-01-22T06:37:31.147Z,100.00
2023-01-22T06:40:03.864Z,100.00
2023-01-22T06:42:48.984Z,100.00
2023-01-22T06:45:22.919Z,100.00
2023-01-22T06:47:58.732Z,100.00
2023-01-22T06:50:30.811Z,100.00
2023-01-22T06:53:02.864Z,100.00
2023-01-22T06:55:34.964Z,100.00
2023-01-22T06:58:07.349Z,100.00
2023-01-22T07:00:40.083Z,100.00
2023-01-22T07:03:12.776Z,100.00
2023-01-22T07:05:44.813Z,100.00
2023-01-22T07:08:17.024Z,100.00
2023-01-22T07:10:49.014Z,100.00
2023-01-22T07:13:21.154Z,100.00
2023-01-22T07:15:53.866Z,100.00
2023-01-22T07:18:26.065Z,100.00
2023-01-22T07:20:59.824Z,100.00
2023-01-22T07:23:33.579Z,100.00
2023-01-22T07:26:05.620Z,100.00
2023-01-22T07:28:37.746Z,100.00
2023-01-22T07:31:10.636Z,100.00
2023-01-22T07:33:42.817Z,100.00
2023-01-22T07:36:14.831Z,100.00
2023-01-22T07:38:46.883Z,100.00
2023-01-22T07:41:25.748Z,100.00
2023-01-22T07:44:00.058Z,100.00
2023-01-22T07:46:33.931Z,100.00
2023-01-22T07:49:06.205Z,100.00
2023-01-22T07:51:38.182Z,100.00
2023-01-22T07:54:10.328Z,100.00
2023-01-22T07:56:42.313Z,100.00
2023-01-22T07:59:14.679Z,100.00
2023-01-22T08:01:47.331Z,100.00
2023-01-22T08:04:19.400Z,100.00
2023-01-22T08:06:51.466Z,100.00
2023-01-22T08:09:25.073Z,100.00
2023-01-22T08:11:57.092Z,100.00
2023-01-22T08:14:29.176Z,100.00
2023-01-22T08:17:02.287Z,100.00
2023-01-22T08:19:34.503Z,100.00
2023-01-22T08:22:06.914Z,100.00
2023-01-22T08:24:39.187Z,100.00
2023-01-22T08:27:11.243Z,100.00
2023-01-22T08:29:43.289Z,100.00
2023-01-22T08:32:16.232Z,100.00
2023-01-22T08:34:49.983Z,100.00
2023-01-22T08:37:22.301Z,100.00
2023-01-22T08:39:54.371Z,100.00
2023-01-22T08:42:27.015Z,100.00
2023-01-22T08:44:59.109Z,100.00
2023-01-22T08:47:31.809Z,100.00
2023-01-22T08:50:04.215Z,100.00
2023-01-22T08:52:36.285Z,100.00
2023-01-22T08:55:09.460Z,100.00
2023-01-22T08:57:41.533Z,100.00
2023-01-22T09:00:14.294Z,100.00
2023-01-22T09:02:47.248Z,100.00
2023-01-22T09:05:19.286Z,100.00
2023-01-22T09:07:51.662Z,100.00
2023-01-22T09:10:24.040Z,100.00
2023-01-22T09:12:58.102Z,100.00
2023-01-22T09:15:30.188Z,100.00
2023-01-22T09:18:02.983Z,100.00
2023-01-22T09:20:35.014Z,100.00
2023-01-22T09:23:07.517Z,100.00
2023-01-22T09:25:39.757Z,100.00
2023-01-22T09:28:12.003Z,100.00
2023-01-22T09:30:44.134Z,100.00
2023-01-22T09:33:16.902Z,100.00
2023-01-22T09:35:48.959Z,100.00
2023-01-22T09:38:21.009Z,100.00
2023-01-22T09:40:56.991Z,100.00
2023-01-22T09:43:31.401Z,100.00
2023-01-22T09:46:05.687Z,100.00
2023-01-22T09:48:41.001Z,100.00
2023-01-22T09:51:13.787Z,100.00
2023-01-22T09:53:49.553Z,100.00
2023-01-22T09:56:23.084Z,100.00
2023-01-22T09:58:55.706Z,100.00
2023-01-22T10:01:29.021Z,100.00
2023-01-22T10:04:04.774Z,100.00
2023-01-22T10:06:36.795Z,100.00
2023-01-22T10:09:12.127Z,100.00
2023-01-22T10:11:45.992Z,100.00
2023-01-22T10:14:20.480Z,100.00
2023-01-22T10:16:52.561Z,100.00
2023-01-22T10:19:26.902Z,100.00
2023-01-22T10:22:00.349Z,100.00
2023-01-22T10:24:32.642Z,100.00
2023-01-22T10:27:10.099Z,100.00
2023-01-22T10:29:43.148Z,100.00
2023-01-22T10:32:16.868Z,100.00
2023-01-22T10:35:02.657Z,100.00
2023-01-22T10:37:44.569Z,100.00
2023-01-22T10:40:20.885Z,100.00
2023-01-22T10:43:03.145Z,99.92
2023-01-22T10:45:35.164Z,95.50
2023-01-22T10:48:12.246Z,92.84
2023-01-22T10:50:45.405Z,89.15
2023-01-22T10:53:19.804Z,89.86
2023-01-22T10:55:53.223Z,89.74
2023-01-22T10:58:29.402Z,90.05
2023-01-22T11:01:02.825Z,90.13
2023-01-22T11:03:36.085Z,88.74
2023-01-22T11:06:13.093Z,88.33
2023-01-22T11:08:48.327Z,83.54
2023-01-22T11:11:23.814Z,81.94
2023-01-22T11:14:00.359Z,80.21
2023-01-22T11:16:34.580Z,80.50
2023-01-22T11:19:11.492Z,78.42
2023-01-22T11:21:45.833Z,78.17
2023-01-22T11:24:20.938Z,75.88
2023-01-22T11:26:57.918Z,76.76
2023-01-22T11:29:35.668Z,77.78
2023-01-22T11:32:25.342Z,75.23
2023-01-22T11:35:02.773Z,71.89
2023-01-22T11:37:42.210Z,74.70
2023-01-22T11:40:22.635Z,79.11
2023-01-22T11:43:02.158Z,82.92
2023-01-22T11:45:47.120Z,85.23
2023-01-22T11:48:24.561Z,86.52
2023-01-22T11:51:02.495Z,87.54
2023-01-22T11:53:49.342Z,88.30
2023-01-22T11:56:30.199Z,89.87
2023-01-22T11:59:03.931Z,93.04
2023-01-22T12:01:42.593Z,88.70
2023-01-22T12:04:28.939Z,90.46
2023-01-22T12:07:13.201Z,92.45
2023-01-22T12:09:51.446Z,90.72
2023-01-22T12:12:29.844Z,91.17
2023-01-22T12:15:07.090Z,90.53
2023-01-22T12:17:48.262Z,89.35
2023-01-22T12:20:29.716Z,88.31
2023-01-22T12:23:05.184Z,87.93
2023-01-22T12:25:41.728Z,88.93
2023-01-22T12:28:16.666Z,88.15
2023-01-22T12:30:53.783Z,86.86
2023-01-22T12:33:28.819Z,86.02
2023-01-22T12:36:01.931Z,86.71
2023-01-22T12:38:39.704Z,82.46
2023-01-22T12:41:17.226Z,81.20
2023-01-22T12:43:52.042Z,80.57
2023-01-22T12:46:28.976Z,80.33
2023-01-22T12:49:04.531Z,81.16
2023-01-22T12:51:38.308Z,83.09
2023-01-22T12:54:18.293Z,83.31
2023-01-22T12:56:55.828Z,84.37
2023-01-22T12:59:40.004Z,83.00
2023-01-22T13:02:23.159Z,85.83
2023-01-22T13:04:55.679Z,88.98
2023-01-22T13:07:33.801Z,89.22
2023-01-22T13:10:21.119Z,86.80
2023-01-22T13:12:55.207Z,86.73
2023-01-22T13:15:29.466Z,86.89
2023-01-22T13:18:07.008Z,88.68
2023-01-22T13:20:46.426Z,88.34
2023-01-22T13:23:21.368Z,91.62
2023-01-22T13:25:54.459Z,90.40
2023-01-22T13:28:27.338Z,91.67
2023-01-22T13:31:01.012Z,92.24
2023-01-22T13:33:33.099Z,93.27
2023-01-22T13:36:08.730Z,94.51
2023-01-22T13:38:40.728Z,96.66
2023-01-22T13:41:21.631Z,95.23
2023-01-22T13:43:53.699Z,95.44
2023-01-22T13:46:28.042Z,97.01
2023-01-22T13:49:01.725Z,95.90
2023-01-22T13:51:34.867Z,96.88
2023-01-22T13:54:07.575Z,98.51
2023-01-22T13:56:40.275Z,97.38
2023-01-22T13:59:18.177Z,96.78
2023-01-22T14:01:51.640Z,95.85
2023-01-22T14:04:28.944Z,97.26
2023-01-22T14:07:01.565Z,96.41
2023-01-22T14:09:34.684Z,98.61
2023-01-22T14:12:13.691Z,96.47
2023-01-22T14:14:46.180Z,95.62
2023-01-22T14:17:23.611Z,97.31
2023-01-22T14:19:55.658Z,96.42
2023-01-22T14:22:27.937Z,97.50
2023-01-22T14:24:59.966Z,99.30
2023-01-22T14:27:39.659Z,98.90
2023-01-22T14:30:13.937Z,99.97
2023-01-22T14:32:46.644Z,100.00
2023-01-22T14:35:19.721Z,100.00
2023-01-22T14:37:52.093Z,100.00
2023-01-22T14:40:24.861Z,100.00
2023-01-22T14:42:58.968Z,100.00
2023-01-22T14:45:31.235Z,100.00
2023-01-22T14:48:04.547Z,100.00
2023-01-22T14:50:38.414Z,100.00
2023-01-22T14:53:11.037Z,100.00
2023-01-22T14:55:44.622Z,100.00
2023-01-22T14:58:16.767Z,100.00
2023-01-22T15:00:48.911Z,100.00
2023-01-22T15:03:21.668Z,100.00
2023-01-22T15:05:53.677Z,100.00
2023-01-22T15:08:25.820Z,100.00
2023-01-22T15:10:59.117Z,100.00
2023-01-22T15:13:31.215Z,100.00
2023-01-22T15:16:03.813Z,100.00
2023-01-22T15:18:37.122Z,100.00
2023-01-22T15:21:09.732Z,100.00
2023-01-22T15:23:41.867Z,100.00
2023-01-22T15:26:22.890Z,100.00
2023-01-22T15:28:55.065Z,100.00
2023-01-22T15:31:27.124Z,100.00
2023-01-22T15:34:01.463Z,100.00
2023-01-22T15:36:35.481Z,100.00
2023-01-22T15:39:07.719Z,100.00
2023-01-22T15:41:39.748Z,100.00
2023-01-22T15:44:12.916Z,100.00
2023-01-22T15:46:45.591Z,100.00
2023-01-22T15:49:18.298Z,100.00
2023-01-22T15:51:50.312Z,100.00
2023-01-22T15:54:24.915Z,100.00
2023-01-22T15:56:57.703Z,100.00
2023-01-22T15:59:29.753Z,100.00
2023-01-22T16:02:01.872Z,100.00
2023-01-22T16:04:34.853Z,100.00
2023-01-22T16:07:06.890Z,100.00
2023-01-22T16:09:39.097Z,100.00
2023-01-22T16:12:11.260Z,100.00
2023-01-22T16:14:43.485Z,100.00
2023-01-22T16:17:15.594Z,100.00
2023-01-22T16:19:51.105Z,100.00
2023-01-22T16:22:24.197Z,100.00
2023-01-22T16:24:56.274Z,100.00
2023-01-22T16:27:28.357Z,100.00
2023-01-22T16:30:00.491Z,100.00
2023-01-22T16:32:33.427Z,100.00
2023-01-22T16:35:06.714Z,100.00
2023-01-22T16:37:38.818Z,100.00
2023-01-22T16:40:11.732Z,100.00
2023-01-22T16:42:56.473Z,100.00
2023-01-22T16:45:28.702Z,100.00
2023-01-22T16:48:01.330Z,100.00
2023-01-22T16:50:34.170Z,100.00
2023-01-22T16:53:06.259Z,100.00
2023-01-22T16:55:38.273Z,100.00
2023-01-22T16:58:10.318Z,100.00
2023-01-22T17:00:42.368Z,100.00
2023-01-22T17:03:14.443Z,100.00
2023-01-22T17:05:48.542Z,100.00
2023-01-22T17:08:20.582Z,100.00
2023-01-22T17:10:52.955Z,100.00
2023-01-22T17:13:24.967Z,100.00
2023-01-22T17:15:57.123Z,100.00
2023-01-22T17:18:29.146Z,100.00
2023-01-22T17:21:02.626Z,100.00
2023-01-22T17:23:34.820Z,100.00
2023-01-22T17:26:07.815Z,100.00
2023-01-22T17:28:39.934Z,100.00
2023-01-22T17:31:14.689Z,100.00
2023-01-22T17:33:47.294Z,100.00
2023-01-22T17:36:21.216Z,100.00
2023-01-22T17:38:55.779Z,100.00
2023-01-22T17:41:29.517Z,100.00
2023-01-22T17:44:02.175Z,100.00
2023-01-22T17:46:34.982Z,100.00
2023-01-22T17:49:07.046Z,100.00
2023-01-22T17:51:39.844Z,100.00
2023-01-22T17:54:11.960Z,100.00
2023-01-22T17:56:47.552Z,100.00
2023-01-22T17:59:20.381Z,100.00
2023-01-22T18:01:52.591Z,100.00
2023-01-22T18:04:25.250Z,100.00
2023-01-22T18:06:58.039Z,100.00
2023-01-22T18:09:30.425Z,100.00
2023-01-22T18:12:02.538Z,100.00
2023-01-22T18:14:34.906Z,100.00
2023-01-22T18:17:07.176Z,100.00
2023-01-22T18:19:39.162Z,100.00
2023-01-22T18:22:11.948Z,100.00
2023-01-22T18:24:44.379Z,100.00
2023-01-22T18:27:16.545Z,100.00
2023-01-22T18:29:48.575Z,100.00
2023-01-22T18:32:21.027Z,100.00
2023-01-22T18:34:53.060Z,100.00
2023-01-22T18:37:25.950Z,100.00
2023-01-22T18:39:57.976Z,100.00
2023-01-22T18:42:30.060Z,100.00
2023-01-22T18:45:02.133Z,100.00
2023-01-22T18:47:36.423Z,100.00
2023-01-22T18:50:11.254Z,100.00
2023-01-22T18:52:43.980Z,100.00
2023-01-22T18:55:16.208Z,100.00
2023-01-22T18:58:29.622Z,100.00
2023-01-22T19:01:08.872Z,100.00
2023-01-22T19:03:42.372Z,100.00
2023-01-22T19:06:16.283Z,100.00
2023-01-22T19:08:53.060Z,100.00
2023-01-22T19:11:25.243Z,100.00
2023-01-22T19:13:58.213Z,100.00
2023-01-22T19:16:31.094Z,100.00
2023-01-22T19:19:10.340Z,100.00
2023-01-22T19:21:46.116Z,100.00
2023-01-22T19:24:21.678Z,100.00
2023-01-22T19:26:54.204Z,100.00
2023-01-22T19:29:26.632Z,100.00
2023-01-22T19:31:58.962Z,100.00
2023-01-22T19:34:31.693Z,100.00
2023-01-22T19:37:05.729Z,100.00
2023-01-22T19:39:41.454Z,100.00
2023-01-22T19:42:14.868Z,100.00
2023-01-22T19:44:47.007Z,100.00
2023-01-22T19:47:19.538Z,100.00
2023-01-22T19:49:52.220Z,100.00
2023-01-22T19:52:24.264Z,100.00
2023-01-22T19:54:57.054Z,100.00
2023-01-22T19:57:29.515Z,100.00
2023-01-22T20:00:01.663Z,100.00
2023-01-22T20:02:33.662Z,100.00
2023-01-22T20:05:06.263Z,100.00
2023-01-22T20:07:38.305Z,100.00
2023-01-22T20:10:13.370Z,100.00
2023-01-22T20:12:48.968Z,100.00
2023-01-22T20:15:21.388Z,100.00
2023-01-22T20:17:54.065Z,100.00
2023-01-22T20:20:26.232Z,100.00
2023-01-22T20:22:58.347Z,100.00
2023-01-22T20:25:31.771Z,100.00
2023-01-22T20:28:06.504Z,100.00
2023-01-22T20:30:38.686Z,100.00
2023-01-22T20:33:11.186Z,100.00
2023-01-22T20:35:43.446Z,100.00
2023-01-22T20:38:15.551Z,100.00
2023-01-22T20:40:48.248Z,100.00
2023-01-22T20:43:20.331Z,100.00
2023-01-22T20:45:59.536Z,100.00
2023-01-22T20:48:32.115Z,100.00
2023-01-22T20:51:04.636Z,100.00
2023-01-22T20:53:36.951Z,100.00
2023-01-22T20:56:12.076Z,100.00
2023-01-22T20:58:44.398Z,100.00
2023-01-22T21:01:18.544Z,100.00
2023-01-22T21:03:50.559Z,100.00
2023-01-22T21:06:22.912Z,100.00
2023-01-22T21:08:55.913Z,100.00
2023-01-22T21:11:30.231Z,100.00
2023-01-22T21:14:03.871Z,100.00
2023-01-22T21:16:37.005Z,100.00
2023-01-22T21:19:13.003Z,100.00
2023-01-22T21:21:45.268Z,100.00
2023-01-22T21:24:17.331Z,100.00
2023-01-22T21:26:50.592Z,100.00
2023-01-22T21:29:23.289Z,100.00
2023-01-22T21:31:55.436Z,100.00
2023-01-22T21:34:27.654Z,100.00
2023-01-22T21:36:59.837Z,100.00
2023-01-22T21:39:32.330Z,100.00
2023-01-22T21:42:23.419Z,100.00
2023-01-22T21:45:14.007Z,100.00
2023-01-22T21:47:46.153Z,100.00
2023-01-22T21:50:18.389Z,100.00
2023-01-22T21:52:52.473Z,100.00
2023-01-22T21:55:24.563Z,100.00
2023-01-22T21:57:57.354Z,100.00
2023-01-22T22:00:29.569Z,100.00
2023-01-22T22:03:01.654Z,100.00
2023-01-22T22:05:33.720Z,100.00
2023-01-22T22:08:06.050Z,100.00
2023-01-22T22:10:38.070Z,100.00
2023-01-22T22:13:10.812Z,100.00
2023-01-22T22:15:42.895Z,100.00
2023-01-22T22:18:15.040Z,100.00
2023-01-22T22:20:47.117Z,100.00
2023-01-22T22:23:19.179Z,100.00
2023-01-22T22:25:51.700Z,100.00
2023-01-22T22:28:24.779Z,100.00
2023-01-22T22:31:01.511Z,100.00
2023-01-22T22:33:38.363Z,100.00
2023-01-22T22:36:11.144Z,100.00
2023-01-22T22:38:43.580Z,100.00
2023-01-22T22:41:16.974Z,100.00
2023-01-22T22:43:51.279Z,100.00
2023-01-22T22:46:24.141Z,100.00
2023-01-22T22:48:57.205Z,100.00
2023-01-22T22:51:30.739Z,100.00
2023-01-22T22:54:04.281Z,100.00
2023-01-22T22:56:36.298Z,100.00
2023-01-22T22:59:09.432Z,100.00
2023-01-22T23:01:41.674Z,100.00
2023-01-22T23:04:13.806Z,100.00
2023-01-22T23:06:46.276Z,100.00
2023-01-22T23:09:19.459Z,100.00
2023-01-22T23:11:52.479Z,100.00
2023-01-22T23:14:25.787Z,100.00
2023-01-22T23:16:58.017Z,100.00
2023-01-22T23:19:30.174Z,100.00
2023-01-22T23:22:02.282Z,100.00
2023-01-22T23:24:34.374Z,100.00
2023-01-22T23:27:06.484Z,100.00
2023-01-22T23:29:39.289Z,100.00
2023-01-22T23:32:11.311Z,100.00
2023-01-22T23:34:43.374Z,100.00
2023-01-22T23:37:15.475Z,100.00
2023-01-22T23:39:50.464Z,100.00
2023-01-22T23:42:22.520Z,100.00
2023-01-22T23:44:55.363Z,100.00
2023-01-22T23:47:27.464Z,100.00
2023-01-22T23:49:59.490Z,100.00
2023-01-22T23:52:31.579Z,100.00
2023-01-22T23:55:04.131Z,100.00
2023-01-22T23:57:36.248Z,100.00
